Time;durP1;ratioP1;P1;durP2;ratioP2;P2;SDS_P1;SDS_P2;PMS_P1;PMS_P2;Temp;Humidity;BMP_temperature;BMP_pressure;BME280_temperature;BME280_humidity;BME280_pressure;Samples;Min_cycle;Max_cycle;Signal;HPM_P1;HPM_P2
2022/10/18 00:00:00;;;;;;;4.67;3.50;;;;;;;-143.84;75.02;45127.13;5069402;28;20853;-73
2022/10/18 00:02:29;;;;;;;4.30;3.40;;;;;;;-143.84;75.59;45117.63;5069274;28;20464;-73
2022/10/18 00:04:56;;;;;;;7.13;4.27;;;;;;;-143.84;75.83;45146.19;5069555;28;20486;-73
2022/10/18 00:07:23;;;;;;;4.20;3.80;;;;;;;-143.84;76.21;45136.66;5069593;28;20467;-73
2022/10/18 00:09:50;;;;;;;3.73;3.10;;;;;;;-143.84;76.60;45127.13;5069581;28;20440;-73
2022/10/18 00:12:18;;;;;;;4.03;3.73;;;;;;;-143.84;76.83;45148.09;5069142;28;20442;-73
2022/10/18 00:14:45;;;;;;;4.00;3.53;;;;;;;-143.84;77.29;45150.00;5069129;28;20496;-73
2022/10/18 00:17:12;;;;;;;4.37;3.07;;;;;;;-143.84;77.89;45121.44;5071484;28;20853;-73
2022/10/18 00:19:41;;;;;;;5.30;3.77;;;;;;;-143.84;77.88;45125.22;5072648;28;20523;-73
2022/10/18 00:22:08;;;;;;;5.27;3.57;;;;;;;-143.84;77.77;45146.19;5072383;28;20444;-73
2022/10/18 00:24:35;;;;;;;5.40;2.83;;;;;;;-143.84;78.19;45140.47;5072287;28;20471;-73
2022/10/18 00:27:02;;;;;;;4.90;3.83;;;;;;;-143.84;78.12;45136.66;5072935;28;20864;-73
2022/10/18 00:29:30;;;;;;;4.60;3.30;;;;;;;-143.84;78.19;45121.44;5072697;28;20447;-73
2022/10/18 00:31:57;;;;;;;4.57;3.33;;;;;;;-143.84;78.28;45142.38;5072813;28;20443;-73
2022/10/18 00:34:24;;;;;;;4.80;3.03;;;;;;;-143.84;78.29;45136.66;5073035;28;20455;-73
2022/10/18 00:36:53;;;;;;;6.40;2.90;;;;;;;-143.84;78.68;45159.50;5072998;28;20829;-73
2022/10/18 00:39:22;;;;;;;6.27;3.20;;;;;;;-143.84;79.01;45132.84;5072426;28;20454;-73
2022/10/18 00:41:49;;;;;;;3.70;3.30;;;;;;;-143.84;78.68;45151.91;5054771;28;21010;-73
2022/10/18 00:44:54;;;;;;;4.00;2.60;;;;;;;-143.84;78.60;45125.22;5052543;28;20487;-73
2022/10/18 00:47:21;;;;;;;4.40;3.27;;;;;;;-143.84;78.78;45144.28;5053118;28;20448;-73
2022/10/18 00:49:52;;;;;;;4.37;3.10;;;;;;;-143.84;78.79;45134.75;5052955;28;20497;-73
2022/10/18 00:52:24;;;;;;;5.07;3.00;;;;;;;-143.84;78.78;45155.69;5053213;28;20483;-73
2022/10/18 00:54:52;;;;;;;5.83;4.13;;;;;;;-143.84;78.57;45140.47;5052887;28;20455;-73
2022/10/18 00:57:20;;;;;;;5.00;3.77;;;;;;;-143.84;78.59;45157.59;5052908;28;20959;-73
2022/10/18 00:59:47;;;;;;;4.87;4.00;;;;;;;-143.84;78.62;45146.19;5052580;28;20498;-73
2022/10/18 01:02:17;;;;;;;4.33;3.93;;;;;;;-143.84;78.51;45134.75;5052657;28;20470;-73
2022/10/18 01:04:44;;;;;;;3.83;3.53;;;;;;;-143.84;78.46;45117.63;5052284;28;20487;-73
2022/10/18 01:07:20;;;;;;;6.33;3.60;;;;;;;-143.84;78.61;45148.09;5052493;28;20435;-73
2022/10/18 01:09:59;;;;;;;4.67;4.23;;;;;;;-143.84;78.98;45146.19;5052661;28;20429;-73
2022/10/18 01:12:38;;;;;;;3.90;3.60;;;;;;;-143.84;79.24;45127.13;5052761;28;20820;-73
2022/10/18 01:15:11;;;;;;;6.10;3.33;;;;;;;-143.84;79.72;45140.47;5052352;28;20449;-73
2022/10/18 01:17:48;;;;;;;6.87;3.57;;;;;;;-143.84;80.34;45134.75;5052506;28;21381;-73
2022/10/18 01:20:53;;;;;;;4.93;4.50;;;;;;;-143.84;81.02;45136.66;5052739;28;20935;-73
2022/10/18 01:23:32;;;;;;;4.73;3.93;;;;;;;-143.84;81.36;45153.81;5052064;28;20441;-73
2022/10/18 01:26:18;;;;;;;6.03;4.30;;;;;;;-143.84;81.50;45151.91;5052137;28;20494;-73
2022/10/18 01:28:57;;;;;;;10.10;3.90;;;;;;;-143.84;81.78;45146.19;5051302;28;20508;-73
2022/10/18 01:31:30;;;;;;;10.00;4.00;;;;;;;-143.84;82.25;45146.19;5052177;28;20438;-73
2022/10/18 01:34:00;;;;;;;12.20;4.00;;;;;;;-143.84;82.67;45161.41;5051982;28;20942;-73
2022/10/18 01:36:30;;;;;;;5.57;3.87;;;;;;;-143.84;82.73;45150.00;5051974;28;20499;-73
2022/10/18 01:39:01;;;;;;;4.63;4.00;;;;;;;-143.84;82.95;45148.09;5051705;28;20495;-73
2022/10/18 01:41:29;;;;;;;4.00;3.67;;;;;;;-143.84;82.91;45134.75;5066191;28;20476;-73
2022/10/18 01:43:59;;;;;;;4.60;4.20;;;;;;;-143.84;83.04;45163.31;5071855;28;20437;-73
2022/10/18 01:46:29;;;;;;;5.50;4.60;;;;;;;-143.84;83.30;45125.22;5071772;28;20438;-73
2022/10/18 01:48:57;;;;;;;11.10;4.33;;;;;;;-143.84;83.38;45155.69;5071322;28;20437;-73
2022/10/18 01:51:26;;;;;;;10.53;4.70;;;;;;;-143.84;83.59;45151.91;5072553;28;20913;-73
2022/10/18 01:53:54;;;;;;;4.03;3.63;;;;;;;-143.84;83.21;45138.56;5072513;28;20498;-74
2022/10/18 01:56:43;;;;;;;4.90;3.90;;;;;;;-143.84;83.38;45144.28;5072509;28;20435;-74
2022/10/18 01:59:30;;;;;;;8.10;4.20;;;;;;;-143.84;83.15;45153.81;5072081;28;20499;-74
2022/10/18 02:02:08;;;;;;;4.70;4.30;;;;;;;-143.84;83.43;45148.09;5072043;28;20499;-74
2022/10/18 02:04:43;;;;;;;4.30;3.90;;;;;;;-143.84;83.38;45153.81;5071827;28;20486;-74
2022/10/18 02:07:21;;;;;;;6.20;4.00;;;;;;;-143.84;83.39;45129.03;5071625;28;20490;-73
2022/10/18 02:09:59;;;;;;;6.07;5.00;;;;;;;-143.84;83.67;45195.69;5070743;28;20430;-73
2022/10/18 02:12:28;;;;;;;7.90;4.00;;;;;;;-143.84;83.48;45150.00;5070880;28;20446;-73
2022/10/18 02:14:57;;;;;;;6.93;4.27;;;;;;;-143.84;83.68;45146.19;5070699;28;20451;-73
2022/10/18 02:17:29;;;;;;;4.70;4.10;;;;;;;-143.84;83.70;45136.66;5070942;28;20507;-73
2022/10/18 02:19:57;;;;;;;4.93;4.23;;;;;;;-143.84;84.06;45106.19;5070801;28;20518;-73
2022/10/18 02:22:28;;;;;;;5.63;4.73;;;;;;;-143.84;84.31;45159.50;5070113;28;20439;-73
2022/10/18 02:24:59;;;;;;;5.67;3.63;;;;;;;-143.84;84.57;45142.38;5070833;28;20471;-73
2022/10/18 02:27:26;;;;;;;7.00;4.90;;;;;;;-143.84;84.73;45130.94;5070788;28;20446;-73
2022/10/18 02:29:54;;;;;;;5.97;4.20;;;;;;;-143.84;84.85;45165.22;5070485;28;20455;-73
2022/10/18 02:32:32;;;;;;;6.10;4.50;;;;;;;-143.84;84.99;45148.09;5070242;28;20482;-73
2022/10/18 02:35:04;;;;;;;4.07;3.70;;;;;;;-143.84;84.94;45136.66;5070314;28;20802;-73
2022/10/18 02:37:36;;;;;;;6.77;4.23;;;;;;;-143.84;85.21;45150.00;5070525;28;20437;-73
2022/10/18 02:40:05;;;;;;;6.10;4.57;;;;;;;-143.84;85.17;45140.47;5069574;28;20495;-73
2022/10/18 02:42:36;;;;;;;4.17;3.77;;;;;;;-143.84;85.23;45155.69;5070127;28;20439;-73
2022/10/18 02:45:04;;;;;;;5.10;4.43;;;;;;;-143.84;85.15;45140.47;5070304;28;20468;-73
2022/10/18 02:47:33;;;;;;;5.63;4.37;;;;;;;-143.84;85.64;45138.56;5070573;28;20438;-73
2022/10/18 02:50:00;;;;;;;8.50;4.00;;;;;;;-143.84;85.64;45130.94;5070125;28;20509;-73
2022/10/18 02:52:27;;;;;;;7.40;4.10;;;;;;;-143.84;85.68;45121.44;5070225;28;20431;-73
2022/10/18 02:54:54;;;;;;;10.27;5.03;;;;;;;-143.84;85.68;45127.13;5070360;28;20497;-73
2022/10/18 02:57:21;;;;;;;5.70;3.60;;;;;;;-143.84;86.05;45138.56;5070091;28;20448;-73
2022/10/18 02:59:48;;;;;;;6.80;4.50;;;;;;;-143.84;86.04;45138.56;5070441;28;20433;-73
2022/10/18 03:02:16;;;;;;;5.33;4.70;;;;;;;-143.84;85.97;45134.75;5070798;28;20445;-73
2022/10/18 03:04:44;;;;;;;7.10;4.93;;;;;;;-143.84;86.58;45132.84;5069951;28;20519;-73
2022/10/18 03:07:11;;;;;;;6.70;4.80;;;;;;;-143.84;86.25;45155.69;5069362;28;20459;-73
2022/10/18 03:09:39;;;;;;;10.87;5.43;;;;;;;-143.84;86.48;45157.59;5071076;28;20486;-73
2022/10/18 03:12:06;;;;;;;6.37;5.37;;;;;;;-143.84;86.62;45134.75;5072227;28;20494;-73
2022/10/18 03:14:33;;;;;;;6.30;5.47;;;;;;;-143.84;86.68;45148.09;5069931;28;20430;-73
2022/10/18 03:17:00;;;;;;;5.60;5.10;;;;;;;-143.84;87.00;45150.00;5069939;28;20434;-73
2022/10/18 03:19:27;;;;;;;6.17;5.57;;;;;;;-143.84;87.31;45169.03;5070478;28;20422;-73
2022/10/18 03:21:56;;;;;;;10.53;6.33;;;;;;;-143.84;87.54;45146.19;5069975;28;20540;-73
2022/10/18 03:24:23;;;;;;;10.87;6.30;;;;;;;-143.84;87.53;45161.41;5069982;28;20454;-73
2022/10/18 03:26:50;;;;;;;9.57;6.13;;;;;;;-143.84;87.76;45163.31;5069718;28;20446;-73
2022/10/18 03:29:17;;;;;;;8.67;6.00;;;;;;;-143.84;87.95;45157.59;5070024;28;20496;-73
2022/10/18 03:31:44;;;;;;;7.43;5.50;;;;;;;-143.84;88.04;45142.38;5069903;28;20447;-73
2022/10/18 03:34:12;;;;;;;7.10;6.50;;;;;;;-143.84;87.93;45138.56;5069897;28;20448;-73
2022/10/18 03:36:40;;;;;;;7.87;6.50;;;;;;;-143.84;88.41;45144.28;5069850;28;20980;-73
2022/10/18 03:39:08;;;;;;;10.57;7.20;;;;;;;-143.84;88.24;45150.00;5069987;28;20439;-73
2022/10/18 03:41:35;;;;;;;13.33;7.57;;;;;;;-143.84;88.11;45174.75;5054420;28;20953;-73
2022/10/18 03:44:02;;;;;;;8.80;7.20;;;;;;;-143.84;88.30;45148.09;5056693;28;20455;-73
2022/10/18 03:46:30;;;;;;;8.90;7.23;;;;;;;-143.84;88.26;45150.00;5069513;28;20573;-74
2022/10/18 03:48:57;;;;;;;7.57;6.87;;;;;;;-143.84;88.60;45150.00;5069387;28;20442;-74
2022/10/18 03:51:24;;;;;;;16.37;7.63;;;;;;;-143.84;88.56;45155.69;5070988;28;20441;-73
2022/10/18 03:53:51;;;;;;;13.57;7.50;;;;;;;-143.84;88.58;45142.38;5073382;28;20442;-73
2022/10/18 03:56:20;;;;;;;7.93;6.80;;;;;;;-143.84;88.67;45161.41;5073561;28;20485;-73
2022/10/18 03:58:47;;;;;;;12.17;8.20;;;;;;;-143.84;88.84;45163.31;5073102;28;20443;-73
2022/10/18 04:01:14;;;;;;;10.17;8.93;;;;;;;-143.84;89.15;45167.13;5073235;28;20441;-72
2022/10/18 04:03:41;;;;;;;7.73;6.97;;;;;;;-143.84;89.56;45144.28;5072520;28;20557;-72
2022/10/18 04:06:09;;;;;;;9.53;8.23;;;;;;;-143.84;89.38;45146.19;5073073;28;20470;-72
2022/10/18 04:08:36;;;;;;;11.17;7.67;;;;;;;-143.84;89.47;45174.75;5073222;28;20498;-73
2022/10/18 04:11:07;;;;;;;13.00;7.80;;;;;;;-143.84;88.96;45134.75;5073422;28;20438;-73
2022/10/18 04:13:35;;;;;;;11.67;8.20;;;;;;;-143.84;88.34;45142.38;5073267;28;20438;-73
2022/10/18 04:16:03;;;;;;;12.47;9.37;;;;;;;-143.84;87.71;45174.75;5073034;28;20447;-72
2022/10/18 04:18:30;;;;;;;13.20;8.23;;;;;;;-143.84;86.48;45144.28;5072576;28;20447;-74
2022/10/18 04:20:57;;;;;;;12.40;8.33;;;;;;;-143.84;85.00;45155.69;5072643;28;20443;-69
2022/10/18 04:23:24;;;;;;;12.13;7.90;;;;;;;-143.84;84.77;45151.91;5072455;28;20439;-69
2022/10/18 04:25:51;;;;;;;11.77;8.60;;;;;;;-143.84;85.48;45150.00;5072406;28;20542;-73
2022/10/18 04:28:18;;;;;;;11.00;7.60;;;;;;;-143.84;85.71;45186.16;5072645;28;20488;-72
2022/10/18 04:30:51;;;;;;;10.20;8.70;;;;;;;-143.84;86.24;45142.38;5072666;28;21004;-73
2022/10/18 04:33:18;;;;;;;11.50;7.53;;;;;;;-143.84;86.34;45157.59;5071756;28;20445;-72
2022/10/18 04:35:46;;;;;;;9.23;8.00;;;;;;;-143.84;86.59;45130.94;5072059;28;20457;-69
2022/10/18 04:38:13;;;;;;;19.33;8.73;;;;;;;-143.84;86.34;45146.19;5072209;28;20502;-73
2022/10/18 04:40:41;;;;;;;12.57;8.90;;;;;;;-143.84;85.66;45148.09;5079098;28;20507;-73
2022/10/18 04:43:08;;;;;;;10.37;8.97;;;;;;;-143.84;86.05;45167.13;5092946;28;20436;-73
2022/10/18 04:45:35;;;;;;;10.70;9.20;;;;;;;-143.84;85.83;45148.09;5092445;28;20476;-73
2022/10/18 04:48:04;;;;;;;11.80;8.27;;;;;;;-143.84;85.89;45129.03;5092685;28;20438;-73
2022/10/18 04:50:31;;;;;;;11.50;8.60;;;;;;;-143.84;86.44;45161.41;5092838;28;20522;-73
2022/10/18 04:52:58;;;;;;;12.40;8.63;;;;;;;-143.84;87.15;45157.59;5092907;28;21143;-72
2022/10/18 04:55:25;;;;;;;11.20;9.53;;;;;;;-143.84;87.65;45178.56;5092649;28;20437;-72
2022/10/18 04:57:53;;;;;;;11.00;8.93;;;;;;;-143.84;87.69;45163.31;5092916;28;20493;-72
2022/10/18 05:00:21;;;;;;;12.50;9.57;;;;;;;-143.84;87.74;45153.81;5092435;28;20501;-72
2022/10/18 05:02:48;;;;;;;8.60;7.73;;;;;;;-143.84;87.40;45176.66;5092424;28;20501;-73
2022/10/18 05:05:17;;;;;;;10.50;9.03;;;;;;;-143.84;87.37;45170.94;5092200;28;20517;-72
2022/10/18 05:07:45;;;;;;;16.80;9.67;;;;;;;-143.84;87.28;45151.91;5092494;28;20443;-72
2022/10/18 05:10:12;;;;;;;13.20;9.63;;;;;;;-143.84;87.88;45199.50;5092077;28;20942;-73
2022/10/18 05:12:39;;;;;;;10.57;9.10;;;;;;;-143.84;88.19;45174.75;5092020;28;20450;-73
2022/10/18 05:15:07;;;;;;;13.73;9.93;;;;;;;-143.84;88.04;45159.50;5092346;28;20510;-72
2022/10/18 05:17:34;;;;;;;12.70;9.47;;;;;;;-143.84;88.40;45142.38;5092192;28;20820;-72
2022/10/18 05:20:01;;;;;;;17.00;10.70;;;;;;;-143.84;89.04;45153.81;5092168;28;20443;-72
2022/10/18 05:22:30;;;;;;;14.47;9.53;;;;;;;-143.84;89.62;45167.13;5092112;28;20456;-72
2022/10/18 05:24:57;;;;;;;15.70;10.73;;;;;;;-143.84;89.81;45159.50;5091789;28;20452;-72
2022/10/18 05:27:24;;;;;;;14.20;9.20;;;;;;;-143.84;90.02;45189.97;5092235;28;20933;-73
2022/10/18 05:29:51;;;;;;;10.30;9.30;;;;;;;-143.84;89.77;45176.66;5092013;28;20448;-73
2022/10/18 05:32:18;;;;;;;12.03;10.03;;;;;;;-143.84;89.57;45180.47;5091913;28;20443;-72
2022/10/18 05:34:45;;;;;;;13.17;9.80;;;;;;;-143.84;88.58;45151.91;5092119;28;21114;-73
2022/10/18 05:37:13;;;;;;;14.70;10.53;;;;;;;-143.84;88.28;45144.28;5092000;28;20441;-72
2022/10/18 05:39:41;;;;;;;13.10;9.67;;;;;;;-143.84;87.65;45167.13;5091338;28;20485;-73
2022/10/18 05:42:08;;;;;;;13.00;10.03;;;;;;;-143.84;87.02;45176.66;5091571;28;20443;-72
2022/10/18 05:44:35;;;;;;;12.17;8.17;;;;;;;-143.84;85.70;45136.66;5091562;28;20445;-73
2022/10/18 05:47:02;;;;;;;9.57;8.10;;;;;;;-143.84;84.66;45138.56;5091970;28;20970;-72
2022/10/18 05:49:30;;;;;;;14.20;8.97;;;;;;;-143.84;83.43;45132.84;5091668;28;20509;-73
2022/10/18 05:51:57;;;;;;;12.90;8.60;;;;;;;-143.84;82.25;45138.56;5091554;28;20443;-73
2022/10/18 05:54:24;;;;;;;10.60;7.53;;;;;;;-143.84;81.07;45142.38;5091470;28;20452;-72
2022/10/18 05:56:52;;;;;;;11.77;7.60;;;;;;;-143.84;80.41;45148.09;5091281;28;20442;-72
2022/10/18 05:59:20;;;;;;;14.40;7.00;;;;;;;-143.84;79.71;45132.84;5091580;28;20443;-73
2022/10/18 06:01:47;;;;;;;11.33;6.93;;;;;;;-143.84;79.01;45127.13;5091233;28;20442;-72
2022/10/18 06:04:16;;;;;;;13.30;7.40;;;;;;;-143.84;78.24;45129.03;5091368;28;20847;-73
2022/10/18 06:06:44;;;;;;;9.50;6.50;;;;;;;-143.84;77.80;45140.47;5091119;28;20481;-72
2022/10/18 06:09:11;;;;;;;6.30;5.67;;;;;;;-143.84;78.05;45127.13;5090922;28;20443;-73
2022/10/18 06:11:38;;;;;;;12.60;6.10;;;;;;;-143.84;77.62;45136.66;5091197;28;20435;-72
2022/10/18 06:14:09;;;;;;;11.20;6.03;;;;;;;-143.84;76.73;45130.94;5090679;28;20497;-73
2022/10/18 06:16:36;;;;;;;7.60;5.67;;;;;;;-143.84;76.63;45111.91;5090953;28;20447;-73
2022/10/18 06:19:04;;;;;;;11.90;5.67;;;;;;;-143.84;75.83;45104.28;5090986;28;20510;-73
2022/10/18 06:21:31;;;;;;;6.17;5.17;;;;;;;-143.84;74.82;45104.28;5091324;28;20508;-74
2022/10/18 06:23:59;;;;;;;16.63;5.50;;;;;;;-143.84;74.41;45125.22;5090745;28;21420;-74
2022/10/18 06:26:27;;;;;;;13.73;4.60;;;;;;;-143.84;73.93;45094.78;5091288;28;20466;-74
2022/10/18 06:28:55;;;;;;;9.63;5.43;;;;;;;-143.84;72.79;45121.44;5091040;28;20436;-74
2022/10/18 06:31:23;;;;;;;10.03;4.37;;;;;;;-143.84;71.26;45117.63;5090208;28;21037;-74
2022/10/18 06:33:50;;;;;;;6.50;4.43;;;;;;;-143.84;70.29;45117.63;5089501;28;20440;-74
2022/10/18 06:36:20;;;;;;;5.97;4.43;;;;;;;-143.84;70.29;45098.56;5089898;28;20471;-74
2022/10/18 06:38:48;;;;;;;7.73;4.43;;;;;;;-143.84;69.88;45100.47;5089307;28;20461;-74
2022/10/18 06:41:16;;;;;;;7.43;4.77;;;;;;;-143.84;68.95;45113.81;5088396;28;20483;-74
2022/10/18 06:43:47;;;;;;;7.03;4.33;;;;;;;-143.84;67.94;45100.47;5089579;28;20435;-74
2022/10/18 06:46:14;;;;;;;9.63;4.27;;;;;;;-143.84;67.40;45090.97;5089907;28;20933;-74
2022/10/18 06:48:43;;;;;;;3.33;3.03;;;;;;;-143.84;66.90;45094.78;5090043;28;20530;-74
2022/10/18 06:51:10;;;;;;;7.33;4.33;;;;;;;-143.84;66.44;45117.63;5090124;28;20505;-74
2022/10/18 06:53:40;;;;;;;4.33;3.93;;;;;;;-143.84;65.19;45096.66;5089876;28;20439;-74
2022/10/18 06:56:10;;;;;;;5.13;4.30;;;;;;;-143.84;64.82;45110.00;5090030;28;20444;-74
2022/10/18 06:58:37;;;;;;;19.43;4.47;;;;;;;-143.84;64.37;45064.31;5090487;28;20424;-74
2022/10/18 07:01:07;;;;;;;6.30;3.87;;;;;;;-143.84;64.67;45092.88;5090339;28;20442;-74
2022/10/18 07:03:34;;;;;;;5.70;4.00;;;;;;;-143.84;64.45;45052.88;5089958;28;20929;-74
2022/10/18 07:06:03;;;;;;;4.43;4.03;;;;;;;-143.84;64.40;45090.97;5086531;28;20508;-74
2022/10/18 07:08:31;;;;;;;8.93;3.57;;;;;;;-143.84;64.08;45083.34;5069748;28;20451;-74
2022/10/18 07:10:58;;;;;;;5.90;3.23;;;;;;;-143.84;62.82;45094.78;5069719;28;20429;-74
2022/10/18 07:13:29;;;;;;;7.17;3.10;;;;;;;-143.84;62.12;45085.25;5069881;28;20483;-74
2022/10/18 07:16:04;;;;;;;6.47;3.20;;;;;;;-143.84;62.44;45106.19;5069885;28;20518;-74
2022/10/18 07:18:33;;;;;;;4.63;3.50;;;;;;;-143.84;62.24;45087.16;5069946;28;20440;-74
2022/10/18 07:21:04;;;;;;;3.80;3.47;;;;;;;-143.84;61.18;45113.81;5069412;28;20922;-74
2022/10/18 07:23:32;;;;;;;7.83;3.30;;;;;;;-143.84;61.70;45098.56;5069180;28;20448;-74
2022/10/18 07:26:00;;;;;;;8.00;3.57;;;;;;;-143.84;61.80;45094.78;5069807;28;20492;-74
2022/10/18 07:28:28;;;;;;;9.10;4.90;;;;;;;-143.84;61.35;45081.44;5073595;28;20463;-74
2022/10/18 07:30:56;;;;;;;6.17;3.60;;;;;;;-143.84;60.24;45077.63;5073706;28;20522;-74
2022/10/18 07:33:24;;;;;;;8.77;4.40;;;;;;;-143.84;59.20;45083.34;5073510;28;20849;-74
2022/10/18 07:35:51;;;;;;;3.60;2.80;;;;;;;-143.84;57.55;45070.00;5073461;28;20441;-74
2022/10/18 07:38:21;;;;;;;8.70;3.27;;;;;;;-143.84;56.99;45064.31;5073506;28;20498;-74
2022/10/18 07:40:48;;;;;;;7.23;2.70;;;;;;;-143.84;56.80;45081.44;5073164;28;21064;-74
2022/10/18 07:43:15;;;;;;;10.10;3.03;;;;;;;-143.84;54.79;45073.81;5073739;28;20506;-74
2022/10/18 07:45:52;;;;;;;3.90;2.60;;;;;;;-143.84;52.48;45096.66;5073189;28;20433;-74
2022/10/18 07:48:19;;;;;;;4.23;2.70;;;;;;;-143.84;51.20;45079.53;5073454;28;20505;-74
2022/10/18 07:50:46;;;;;;;4.50;2.10;;;;;;;-143.84;51.98;45070.00;5073591;28;20514;-74
2022/10/18 07:53:13;;;;;;;4.00;2.67;;;;;;;-143.84;51.23;45071.91;5073705;28;20436;-74
2022/10/18 07:55:43;;;;;;;2.30;2.10;;;;;;;-143.84;51.19;45066.22;5073880;28;21032;-74
2022/10/18 07:58:10;;;;;;;8.40;2.20;;;;;;;-143.84;47.75;45068.13;5073402;28;20437;-74
2022/10/18 08:00:38;;;;;;;5.27;3.07;;;;;;;-143.84;47.63;45066.22;5074952;28;20440;-74
2022/10/18 08:03:05;;;;;;;7.53;3.00;;;;;;;-143.84;48.37;45039.53;5074555;28;20440;-74
2022/10/18 08:05:33;;;;;;;4.43;2.23;;;;;;;-143.84;48.51;45073.81;5074603;28;20428;-74
2022/10/18 08:08:00;;;;;;;4.63;2.50;;;;;;;-143.84;48.93;45043.34;5074180;28;20916;-74
2022/10/18 08:10:27;;;;;;;2.57;2.23;;;;;;;-143.84;48.31;45054.78;5074564;28;20441;-74
2022/10/18 08:12:56;;;;;;;5.57;2.63;;;;;;;-143.84;48.11;45068.13;5074438;28;20494;-74
2022/10/18 08:15:24;;;;;;;2.77;2.20;;;;;;;-143.84;47.86;45035.75;5074432;28;20457;-74
2022/10/18 08:17:51;;;;;;;1.97;1.87;;;;;;;-143.84;47.96;45068.13;5074256;28;20462;-74
2022/10/18 08:20:19;;;;;;;4.53;2.10;;;;;;;-143.84;49.14;45058.59;5074583;28;20440;-74
2022/10/18 08:22:50;;;;;;;7.90;2.17;;;;;;;-143.84;48.86;45075.72;5074287;28;20444;-74
2022/10/18 08:25:17;;;;;;;10.47;2.60;;;;;;;-143.84;49.11;45075.72;5074584;28;20435;-74
2022/10/18 08:27:44;;;;;;;3.37;2.30;;;;;;;-143.84;47.50;45073.81;5074126;28;20464;-74
2022/10/18 08:30:13;;;;;;;7.17;2.60;;;;;;;-143.84;46.46;45033.84;5074465;28;20432;-74
2022/10/18 08:32:40;;;;;;;12.00;2.63;;;;;;;-143.84;46.08;45045.25;5074099;28;20958;-74
2022/10/18 08:35:08;;;;;;;4.13;2.33;;;;;;;-143.84;43.99;45045.25;5073890;28;20440;-74
2022/10/18 08:37:35;;;;;;;2.57;1.90;;;;;;;-143.84;44.02;45041.44;5073761;28;20517;-74
2022/10/18 08:40:03;;;;;;;4.93;2.47;;;;;;;-143.84;42.41;45031.94;5073683;28;20452;-74
2022/10/18 08:42:48;;;;;;;6.83;2.10;;;;;;;-143.84;42.36;45031.94;5074080;28;20494;-74
2022/10/18 08:45:17;;;;;;;7.03;1.73;;;;;;;-143.84;43.33;45039.53;5074015;28;20494;-74
2022/10/18 08:47:50;;;;;;;2.70;2.13;;;;;;;-143.84;44.08;45037.66;5074068;28;20468;-74
2022/10/18 08:50:20;;;;;;;9.40;2.30;;;;;;;-143.84;42.65;45028.13;5073801;28;20445;-74
2022/10/18 08:52:53;;;;;;;6.23;2.00;;;;;;;-143.84;42.32;45039.53;5073646;28;20433;-74
2022/10/18 08:55:24;;;;;;;3.43;2.17;;;;;;;-143.84;43.13;45045.25;5074167;28;20489;-74
2022/10/18 08:57:52;;;;;;;4.17;1.80;;;;;;;-143.84;42.90;45041.44;5073882;28;20436;-74
2022/10/18 09:00:23;;;;;;;3.43;2.40;;;;;;;-143.84;42.29;45005.28;5073581;28;20441;-74
2022/10/18 09:03:03;;;;;;;5.53;2.63;;;;;;;-143.84;41.98;45035.75;5073424;28;20437;-74
2022/10/18 09:05:41;;;;;;;4.93;2.00;;;;;;;-143.84;41.08;45010.97;5073242;28;20433;-74
2022/10/18 09:08:39;;;;;;;5.53;3.20;;;;;;;-143.84;41.13;45012.88;5073276;28;20477;-74
2022/10/18 09:11:19;;;;;;;2.60;1.80;;;;;;;-143.84;40.42;45003.38;5073654;28;20440;-74
2022/10/18 09:14:02;;;;;;;4.17;1.60;;;;;;;-143.84;39.79;45012.88;5074218;28;20424;-74
2022/10/18 09:16:40;;;;;;;5.30;1.87;;;;;;;-143.84;40.52;45020.50;5073841;28;20437;-74
2022/10/18 09:19:20;;;;;;;5.53;2.17;;;;;;;-143.84;39.86;45020.50;5073688;28;20511;-74
2022/10/18 09:21:52;;;;;;;12.13;3.27;;;;;;;-143.84;40.12;45030.03;5073095;28;20468;-74
2022/10/18 09:24:27;;;;;;;7.53;1.90;;;;;;;-143.84;39.47;45035.75;5085571;28;20456;-74
2022/10/18 09:27:01;;;;;;;3.73;2.70;;;;;;;-143.84;40.80;45033.84;5092143;28;20489;-74
2022/10/18 09:29:46;;;;;;;1.90;1.47;;;;;;;-143.84;40.93;45031.94;5072318;28;21296;-74
2022/10/18 09:32:27;;;;;;;8.23;2.30;;;;;;;-143.84;39.57;45022.41;5072493;28;20502;-74
2022/10/18 09:34:58;;;;;;;5.57;1.90;;;;;;;-143.84;39.94;45033.84;5072221;28;20444;-74
2022/10/18 09:37:30;;;;;;;9.20;1.87;;;;;;;-143.84;40.58;45018.59;5072804;28;20445;-74
2022/10/18 09:40:03;;;;;;;5.50;3.27;;;;;;;-143.84;39.93;45033.84;5072521;28;20829;-74
2022/10/18 09:42:36;;;;;;;4.47;3.37;;;;;;;-143.84;40.23;45031.94;5072934;28;20524;-74
2022/10/18 09:45:08;;;;;;;2.60;1.90;;;;;;;-143.84;40.21;45024.31;5073073;28;20854;-74
2022/10/18 09:47:41;;;;;;;5.10;2.70;;;;;;;-143.84;39.26;45010.97;5073017;28;20538;-74
2022/10/18 09:50:27;;;;;;;2.47;2.20;;;;;;;-143.84;39.67;45045.25;5072384;28;20429;-74
2022/10/18 09:53:03;;;;;;;4.07;2.00;;;;;;;-143.84;39.10;45037.66;5072970;28;20436;-74
2022/10/18 09:55:36;;;;;;;7.20;2.80;;;;;;;-143.84;39.66;45037.66;5072440;28;20440;-74
2022/10/18 09:58:06;;;;;;;6.57;2.37;;;;;;;-143.84;40.44;45041.44;5072026;28;20429;-74
2022/10/18 10:00:41;;;;;;;4.40;2.10;;;;;;;-143.84;40.83;45052.88;5072257;28;20467;-74
2022/10/18 10:03:13;;;;;;;2.87;1.80;;;;;;;-143.84;40.65;45035.75;5071981;28;20448;-74
2022/10/18 10:05:41;;;;;;;2.30;1.73;;;;;;;-143.84;40.84;45026.22;5071778;28;20452;-74
2022/10/18 10:08:08;;;;;;;6.30;2.07;;;;;;;-143.84;40.08;45037.66;5072573;28;20494;-74
2022/10/18 10:10:38;;;;;;;4.70;2.70;;;;;;;-143.84;40.41;45041.44;5072313;28;20906;-74
2022/10/18 10:13:14;;;;;;;4.00;1.70;;;;;;;-143.84;40.13;45033.84;5072087;28;20448;-74
2022/10/18 10:15:47;;;;;;;3.50;2.60;;;;;;;-143.84;40.28;45039.53;5072180;28;20464;-74
2022/10/18 10:18:21;;;;;;;2.60;1.80;;;;;;;-143.84;40.17;45047.16;5072723;28;20520;-74
2022/10/18 10:20:52;;;;;;;1.93;1.53;;;;;;;-143.84;40.31;45037.66;5072428;28;20509;-74
2022/10/18 10:23:23;;;;;;;2.47;1.77;;;;;;;-143.84;40.23;45028.13;5072253;28;20437;-74
2022/10/18 10:25:52;;;;;;;3.70;2.30;;;;;;;-143.84;40.23;45026.22;5072189;28;20514;-74
2022/10/18 10:28:23;;;;;;;4.30;1.70;;;;;;;-143.84;40.19;45028.13;5072180;28;20550;-74
2022/10/18 10:30:50;;;;;;;4.00;1.90;;;;;;;-143.84;40.25;45049.06;5072121;28;20444;-74
2022/10/18 10:33:35;;;;;;;3.43;1.90;;;;;;;-143.84;40.99;45049.06;5072592;28;20425;-74
2022/10/18 10:36:04;;;;;;;2.10;1.90;;;;;;;-143.84;41.33;45064.31;5072099;28;20445;-74
2022/10/18 10:38:32;;;;;;;3.23;1.77;;;;;;;-143.84;41.84;45043.34;5053928;28;20461;-74
2022/10/18 10:40:59;;;;;;;7.50;1.77;;;;;;;-143.84;42.27;45075.72;5071947;28;21076;-74
2022/10/18 10:43:29;;;;;;;4.63;2.10;;;;;;;-143.84;43.54;45052.88;5072080;28;21173;-74
2022/10/18 10:46:02;;;;;;;6.43;2.93;;;;;;;-143.84;44.30;45054.78;5071815;28;20441;-74
2022/10/18 10:48:34;;;;;;;6.40;2.60;;;;;;;-143.84;44.06;45049.06;5071212;28;20541;-74
2022/10/18 10:51:06;;;;;;;11.23;2.70;;;;;;;-143.84;44.61;45047.16;5071657;28;20445;-74
2022/10/18 10:53:38;;;;;;;3.10;2.00;;;;;;;-143.84;44.28;45070.00;5071649;28;20515;-74
2022/10/18 10:56:06;;;;;;;3.77;1.90;;;;;;;-143.84;43.95;45056.69;5071425;28;20429;-74
2022/10/18 10:58:40;;;;;;;4.87;2.37;;;;;;;-143.84;45.58;45033.84;5071671;28;20433;-74
2022/10/18 11:01:20;;;;;;;5.27;2.10;;;;;;;-143.84;47.87;45041.44;5071448;28;20445;-74
2022/10/18 11:03:51;;;;;;;5.93;2.37;;;;;;;-143.84;48.53;45045.25;5071374;28;20428;-74
2022/10/18 11:06:45;;;;;;;3.03;2.10;;;;;;;-143.84;48.43;45033.84;5071299;28;20437;-74
2022/10/18 11:09:49;;;;;;;3.60;2.17;;;;;;;-143.84;48.24;45030.03;5071172;28;20437;-74
2022/10/18 11:12:25;;;;;;;2.60;2.00;;;;;;;-143.84;49.00;45020.50;5028959;28;20441;-74
2022/10/18 11:14:59;;;;;;;3.23;2.07;;;;;;;-143.84;49.62;45070.00;5070348;28;20516;-74
2022/10/18 11:17:34;;;;;;;4.87;2.70;;;;;;;-143.84;49.28;45056.69;5070129;28;20498;-74
2022/10/18 11:20:18;;;;;;;4.90;2.07;;;;;;;-143.84;49.22;45062.41;5069679;28;20443;-74
2022/10/18 11:22:57;;;;;;;2.37;2.03;;;;;;;-143.84;49.83;45033.84;5070749;28;20441;-74
2022/10/18 11:25:29;;;;;;;4.30;2.33;;;;;;;-143.84;49.02;45030.03;5069460;28;20433;-74
2022/10/18 11:28:04;;;;;;;4.40;1.73;;;;;;;-143.84;49.25;45043.34;5069221;28;20557;-74